Latest Weather Observations for South Channel Island

IDV60901

Issued at 7:51 pm EST Wednesday 12 August 2020 (issued every 10 minutes, with the page automatically refreshed every 10 minutes)

About weather observations | Map of Melbourne area stations | Latest observations for Melbourne area | Other Formats
Station Details ID: 086344 Name: SOUTH CHANNEL ISLAND Lat: -38.31 Lon: 144.80 Height: 9.0 m
Data from the previous 72 hours. | See also: Recent months at South Channel Island
Date/Time
EST
Temp
°C
App
Temp
°C
Dew
Point
°C
Rel
Hum
%
Delta-T
°C
Wind Press
QNH
hPa
Press
MSL
hPa
Rain since
9am
mm
Dir  Spd
km/h
Gust
km/h
Spd
kts
Gust
kts
12/07:30pm - - - - - NNE 32 35 17 19 - - -
12/07:00pm - - - - - N 32 35 17 19 - - -
12/06:30pm - - - - - N 28 32 15 17 - - -
12/06:00pm - - - - - N 28 32 15 17 - - -
12/05:30pm - - - - - N 33 37 18 20 - - -
12/05:00pm - - - - - NNE 28 30 15 16 - - -
12/04:30pm - - - - - N 28 32 15 17 - - -
12/04:00pm - - - - - NNE 32 37 17 20 - - -
12/03:30pm - - - - - NNE 33 37 18 20 - - -
12/03:00pm - - - - - NNE 33 37 18 20 - - -
12/02:30pm - - - - - N 35 37 19 20 - - -
12/02:00pm - - - - - N 35 39 19 21 - - -
12/01:30pm - - - - - N 37 43 20 23 - - -
12/01:00pm - - - - - NNE 32 33 17 18 - - -
12/12:30pm - - - - - N 33 37 18 20 - - -
12/12:00pm - - - - - NNE 30 33 16 18 - - -
12/11:30am - - - - - NNE 30 33 16 18 - - -
12/11:00am - - - - - NNE 30 35 16 19 - - -
12/10:30am - - - - - NNE 30 35 16 19 - - -
12/10:00am - - - - - NNE 32 35 17 19 - - -
12/09:30am - - - - - NNE 35 43 19 23 - - -
12/09:00am - - - - - N 37 44 20 24 - - -
12/08:30am - - - - - N 35 41 19 22 - - -
12/08:00am - - - - - NNE 35 41 19 22 - - -
12/07:30am - - - - - N 39 46 21 25 - - -
12/07:00am - - - - - NNE 37 46 20 25 - - -
12/06:30am - - - - - NNE 39 48 21 26 - - -
12/06:00am - - - - - N 41 50 22 27 - - -
12/05:30am - - - - - N 41 48 22 26 - - -
12/05:00am - - - - - N 33 39 18 21 - - -
12/04:30am - - - - - N 33 39 18 21 - - -
12/04:00am - - - - - NNE 32 35 17 19 - - -
12/03:30am - - - - - NNE 28 33 15 18 - - -
12/03:00am - - - - - NNE 28 30 15 16 - - -
12/02:30am - - - - - NNE 28 30 15 16 - - -
12/02:00am - - - - - NNE 28 32 15 17 - - -
12/01:30am - - - - - NNE 24 28 13 15 - - -
12/01:00am - - - - - N 20 24 11 13 - - -
12/12:30am - - - - - NNE 19 20 10 11 - - -
12/12:00am - - - - - N 19 22 10 12 - - -
 
Date/Time
EST
Temp
°C
App
Temp
°C
Dew
Point
°C
Rel
Hum
%
Delta-T
°C
Wind Press
QNH
hPa
Press
MSL
hPa
Rain since
9am
mm
Dir  Spd
km/h
Gust
km/h
Spd
kts
Gust
kts
11/11:30pm - - - - - NNE 15 17 8 9 - - -
11/11:00pm - - - - - NNE 17 19 9 10 - - -
11/10:30pm - - - - - NNE 19 22 10 12 - - -
11/10:00pm - - - - - NNE 22 26 12 14 - - -
11/09:30pm - - - - - N 20 26 11 14 - - -
11/09:00pm - - - - - NNE 28 30 15 16 - - -
11/08:30pm - - - - - NE 30 33 16 18 - - -
11/08:00pm - - - - - NNE 26 32 14 17 - - -
11/07:30pm - - - - - NNE 26 30 14 16 - - -
11/07:00pm - - - - - NNE 28 32 15 17 - - -
11/06:30pm - - - - - N 28 32 15 17 - - -
11/06:00pm - - - - - NNE 30 33 16 18 - - -
11/05:30pm - - - - - N 32 33 17 18 - - -
11/05:00pm - - - - - N 39 44 21 24 - - -
11/04:30pm - - - - - N 32 37 17 20 - - -
11/04:00pm - - - - - N 33 37 18 20 - - -
11/03:30pm - - - - - N 35 39 19 21 - - -
11/03:00pm - - - - - N 43 50 23 27 - - -
11/02:30pm - - - - - N 39 46 21 25 - - -
11/02:00pm - - - - - NNE 32 37 17 20 - - -
11/01:30pm - - - - - NNE 37 41 20 22 - - -
11/01:00pm - - - - - NNE 35 41 19 22 - - -
11/12:30pm - - - - - NNE 37 44 20 24 - - -
11/12:00pm - - - - - N 43 50 23 27 - - -
11/11:30am - - - - - N 41 50 22 27 - - -
11/11:00am - - - - - N 33 37 18 20 - - -
11/10:30am - - - - - N 43 48 23 26 - - -
11/10:00am - - - - - N 41 48 22 26 - - -
11/09:30am - - - - - N 43 50 23 27 - - -
11/09:00am - - - - - N 39 44 21 24 - - -
11/08:30am - - - - - N 43 52 23 28 - - -
11/08:00am - - - - - N 37 44 20 24 - - -
11/07:30am - - - - - N 33 39 18 21 - - -
11/07:00am - - - - - N 28 33 15 18 - - -
11/06:30am - - - - - N 28 33 15 18 - - -
11/06:00am - - - - - N 32 35 17 19 - - -
11/05:30am - - - - - N 28 32 15 17 - - -
11/05:00am - - - - - N 26 32 14 17 - - -
11/04:30am - - - - - N 26 30 14 16 - - -
11/04:00am - - - - - N 26 28 14 15 - - -
11/03:30am - - - - - NNE 19 22 10 12 - - -
11/03:00am - - - - - NNE 20 24 11 13 - - -
11/02:30am - - - - - N 19 20 10 11 - - -
11/02:00am - - - - - N 15 19 8 10 - - -
11/01:30am - - - - - N 20 26 11 14 - - -
11/01:00am - - - - - NNE 24 26 13 14 - - -
11/12:30am - - - - - NE 22 26 12 14 - - -
11/12:00am - - - - - NE 20 22 11 12 - - -
 
Date/Time
EST
Temp
°C
App
Temp
°C
Dew
Point
°C
Rel
Hum
%
Delta-T
°C
Wind Press
QNH
hPa
Press
MSL
hPa
Rain since
9am
mm
Dir  Spd
km/h
Gust
km/h
Spd
kts
Gust
kts
10/11:30pm - - - - - ENE 22 24 12 13 - - -
10/11:00pm - - - - - ENE 26 28 14 15 - - -
10/10:30pm - - - - - ENE 20 24 11 13 - - -
10/10:00pm - - - - - ENE 15 17 8 9 - - -
10/09:30pm - - - - - ENE 17 19 9 10 - - -
10/09:00pm - - - - - ENE 13 15 7 8 - - -
10/08:30pm - - - - - CALM 0 0 0 0 - - -
10/08:00pm - - - - - CALM 0 0 0 0 - - -
10/07:30pm - - - - - SE 4 6 2 3 - - -
10/07:00pm - - - - - SE 11 13 6 7 - - -
10/06:30pm - - - - - SE 17 19 9 10 - - -
10/06:00pm - - - - - NW 2 6 1 3 - - -
10/05:30pm - - - - - NW 7 7 4 4 - - -
10/05:00pm - - - - - CALM 0 4 0 2 - - -
10/04:30pm - - - - - WNW 7 9 4 5 - - -
10/04:00pm - - - - - N 6 13 3 7 - - -
10/03:30pm - - - - - N 7 7 4 4 - - -
10/03:00pm - - - - - NNE 6 7 3 4 - - -
10/02:30pm - - - - - CALM 0 6 0 3 - - -
10/02:00pm - - - - - CALM 0 7 0 4 - - -
10/01:30pm - - - - - SE 6 7 3 4 - - -
10/01:00pm - - - - - ESE 9 9 5 5 - - -
10/12:30pm - - - - - E 11 13 6 7 - - -
10/12:00pm - - - - - E 13 15 7 8 - - -
10/11:30am - - - - - E 15 17 8 9 - - -
10/11:00am - - - - - E 15 17 8 9 - - -
10/10:30am - - - - - ESE 15 19 8 10 - - -
10/10:00am - - - - - ESE 20 24 11 13 - - -
10/09:30am - - - - - ESE 22 26 12 14 - - -
10/09:00am - - - - - SE 22 26 12 14 - - -
10/08:30am - - - - - SE 17 20 9 11 - - -
10/08:00am - - - - - SE 20 22 11 12 - - -
10/07:30am - - - - - ESE 20 26 11 14 - - -
10/07:00am - - - - - SE 20 26 11 14 - - -
10/06:30am - - - - - SE 24 28 13 15 - - -
10/06:00am - - - - - SE 24 26 13 14 - - -
10/05:30am - - - - - SE 19 20 10 11 - - -
10/05:00am - - - - - SE 22 26 12 14 - - -
10/04:30am - - - - - SE 24 28 13 15 - - -
10/04:00am - - - - - SE 22 26 12 14 - - -
10/03:30am - - - - - SE 20 26 11 14 - - -
10/03:00am - - - - - ESE 26 30 14 16 - - -
10/02:30am - - - - - SE 24 28 13 15 - - -
10/02:00am - - - - - ESE 17 20 9 11 - - -
10/01:30am - - - - - SE 20 26 11 14 - - -
10/01:00am - - - - - SE 20 26 11 14 - - -
10/12:30am - - - - - SE 19 20 10 11 - - -
10/12:00am - - - - - SE 19 22 10 12 - - -
 
Date/Time
EST
Temp
°C
App
Temp
°C
Dew
Point
°C
Rel
Hum
%
Delta-T
°C
Wind Press
QNH
hPa
Press
MSL
hPa
Rain since
9am
mm
Dir  Spd
km/h
Gust
km/h
Spd
kts
Gust
kts
09/11:30pm - - - - - SE 22 28 12 15 - - -
09/11:00pm - - - - - ESE 24 30 13 16 - - -
09/10:30pm - - - - - SE 24 28 13 15 - - -
09/10:00pm - - - - - SE 22 26 12 14 - - -
09/09:30pm - - - - - ESE 28 32 15 17 - - -
09/09:00pm - - - - - SE 24 30 13 16 - - -
09/08:30pm - - - - - ESE 28 32 15 17 - - -
09/08:00pm - - - - - SE 26 32 14 17 - - -

Latest Capital City Observations: Canberra | Sydney | Melbourne | Brisbane | Adelaide | Perth | Hobart | Darwin

Other formats

Comma delimited format used in spreadsheet applications
http://www.bom.gov.au/fwo/IDV60901/IDV60901.94853.axf

JavaScript Object Notation format (JSON) in row-major order
http://www.bom.gov.au/fwo/IDV60901/IDV60901.94853.json

Data quality

Most of these data are generated automatically and are frequently updated. Quality checks on data are not normally performed. It is possible for incorrect values to appear. Refer to information at About Latest Weather Observations and please check the disclaimer before using these data.